»·PEaware :: ASA261 KBIS-KHLN

ASA261 :: KBIS-KHLN

FLIGHT INFORMATION

Flight Status: Arrived
Operator:
Alaska Airlines
More flights by this operator :: More flights under this callsign
Pilot: Evan P. (5770)
Aircraft: AIRBUS A320
(A320)
More flights by this aircraft type
Origin: KBIS Bismarck Mun
United States
Destination: KHLN Helena Regl
United States
More flights between these airports :: More routes between these airports
Route: +DIK MLS JUVGO
File this flight plan on PilotEdge
Remarks:
Altitude:
(Current/Filed)
32,000ft
Speed:
(Current/Filed)
480kts
Departed: 03-Jul-18 01:04 PM
Arrived: 03-Jul-18 02:00 PM
Distance/Time
Traveled:
462nm/0:56
Distance/Time
To Go:
Arrived

Flight Plot

Page will automatically refresh every two minutes.

Flight plan parsing failed; only flown route is shown


Map Options




Map Legend


Flown Route
Filed Route
Departure Airport
Arrival Airport
Navaid (VOR, NDB)
Fix

Horizontal Profiles

Position Reports

Time Latitude Longitude Heading Altitude Ground
Speed
03-Jul-18 13:03 46.765988 -103.453302 254 32093ft 415kts
03-Jul-18 13:04 46.742629 -103.617426 254 32109ft 413kts
03-Jul-18 13:05 46.723904 -103.747699 253 32114ft 412kts
03-Jul-18 13:06 46.700438 -103.909408 253 32111ft 412kts
03-Jul-18 13:07 46.676561 -104.072210 253 32105ft 412kts
03-Jul-18 13:08 46.652516 -104.234451 253 32094ft 412kts
03-Jul-18 13:09 46.628191 -104.396888 253 32090ft 411kts
03-Jul-18 13:10 46.603547 -104.559761 253 32090ft 411kts
03-Jul-18 13:11 46.579141 -104.719428 253 32083ft 411kts
03-Jul-18 13:12 46.554883 -104.876583 253 32092ft 411kts
03-Jul-18 13:13 46.529733 -105.037901 252 32097ft 410kts
03-Jul-18 13:14 46.504365 -105.199028 252 32081ft 409kts
03-Jul-18 13:15 46.478954 -105.358849 252 32048ft 408kts
03-Jul-18 13:16 46.453260 -105.518896 252 32044ft 408kts
03-Jul-18 13:17 46.427706 -105.676566 252 32053ft 408kts
03-Jul-18 13:18 46.401615 -105.836047 252 32044ft 409kts
03-Jul-18 13:19 46.384192 -105.992137 266 32043ft 421kts
03-Jul-18 13:20 46.392332 -106.162440 267 32041ft 421kts
03-Jul-18 13:21 46.400167 -106.331411 267 32027ft 420kts
03-Jul-18 13:22 46.407759 -106.500120 267 32024ft 420kts
03-Jul-18 13:23 46.414997 -106.666320 267 32027ft 420kts
03-Jul-18 13:24 46.422093 -106.834851 266 32040ft 420kts
03-Jul-18 13:25 46.428956 -107.003804 265 32036ft 420kts
03-Jul-18 13:26 46.435548 -107.172279 265 32030ft 420kts
03-Jul-18 13:27 46.441798 -107.338229 265 32028ft 419kts
03-Jul-18 13:28 46.447881 -107.506241 265 32028ft 419kts
03-Jul-18 13:29 46.453673 -107.673012 265 32031ft 419kts
03-Jul-18 13:30 46.459275 -107.841433 265 32030ft 420kts
03-Jul-18 13:31 46.464636 -108.009913 264 32039ft 421kts
03-Jul-18 13:32 46.469746 -108.178489 264 32068ft 417kts
03-Jul-18 13:33 46.474548 -108.345214 264 31207ft 419kts
03-Jul-18 13:34 46.479209 -108.515290 264 30223ft 426kts
03-Jul-18 13:35 46.483373 -108.675229 263 28748ft 425kts
03-Jul-18 13:36 46.487492 -108.843324 264 26796ft 418kts
03-Jul-18 13:37 46.491328 -109.009933 264 24819ft 411kts
03-Jul-18 13:38 46.494920 -109.177237 264 24019ft 415kts
03-Jul-18 13:39 46.498281 -109.343508 264 24050ft 412kts
03-Jul-18 13:40 46.501369 -109.508946 264 24072ft 410kts
03-Jul-18 13:41 46.504166 -109.670703 263 24072ft 410kts
03-Jul-18 13:42 46.506783 -109.835228 263 24024ft 412kts
03-Jul-18 13:44 46.509122 -110.000006 264 22255ft 407kts
03-Jul-18 13:45 46.511214 -110.160768 265 20293ft 400kts
03-Jul-18 13:46 46.513059 -110.319963 266 18322ft 392kts
03-Jul-18 13:47 46.514658 -110.477058 267 16337ft 383kts
03-Jul-18 13:48 46.516001 -110.629141 268 14366ft 374kts
03-Jul-18 13:49 46.517072 -110.771482 267 13968ft 371kts
03-Jul-18 13:50 46.518014 -110.920159 267 13999ft 367kts
03-Jul-18 13:51 46.518722 -111.064018 269 13651ft 349kts
03-Jul-18 13:52 46.519252 -111.203136 270 13028ft 345kts
03-Jul-18 13:53 46.519611 -111.340842 270 12077ft 331kts
03-Jul-18 13:54 46.523375 -111.460630 283 11976ft 290kts
03-Jul-18 13:55 46.541230 -111.570741 285 10290ft 261kts
03-Jul-18 13:56 46.557890 -111.669089 279 8282ft 255kts
03-Jul-18 13:57 46.572864 -111.766639 279 6643ft 238kts
03-Jul-18 13:58 46.585922 -111.851554 279 5446ft 188kts
03-Jul-18 13:59 46.595834 -111.916270 278 4502ft 153kts
03-Jul-18 14:00 46.604846 -111.974504 274 3855ft 122kts
03-Jul-18 14:01 46.608535 -111.991635 327 3850ft 12kts
03-Jul-18 14:02 46.609805 -111.990443 48 3840ft 0kts
03-Jul-18 14:03 46.609805 -111.990443 48 3840ft 0kts
03-Jul-18 14:04 46.609805 -111.990443 48 3840ft 0kts
03-Jul-18 14:05 46.609805 -111.990443 48 3840ft 0kts
03-Jul-18 14:06 46.609805 -111.990443 48 3840ft 0kts
03-Jul-18 14:07 46.609805 -111.990443 48 3840ft 0kts
03-Jul-18 14:08 46.609805 -111.990443 48 3840ft 0kts
03-Jul-18 14:09 46.609805 -111.990443 48 3840ft 0kts

Navigation Log

Ident Type
Flight plan parsing failed, navigation log unavailable